Observation data for Tatum on 01/09/2018      Previous  Date  Next       Current Mesonet Observations  Soil Data  Daily Summary Page  Observations in Plain Language
KTAT 090600Z 20006KT 02/M06 A3013 RMK A01 T00201057  RH  057%=      5-min Rain = 0
KTAT 090605Z 20007KT 02/M06 A3013 RMK A01 T00201057  RH  057%=      5-min Rain = 0
KTAT 090610Z 20007KT 02/M06 A3013 RMK A01 T00191058  RH  058%=      5-min Rain = 0
KTAT 090615Z 20007KT 02/M06 A3012 RMK A01 T00181058  RH  058%=      5-min Rain = 0
KTAT 090620Z 21006KT 02/M06 A3012 RMK A01 T00171059  RH  058%=      5-min Rain = 0
KTAT 090625Z 21006KT 02/M06 A3012 RMK A01 T00151060  RH  058%=      5-min Rain = 0
KTAT 090630Z 21006KT 01/M06 A3012 RMK A01 T00131059  RH  059%=      5-min Rain = 0
KTAT 090635Z 21007KT 01/M06 A3012 RMK A01 T00141058  RH  059%=      5-min Rain = 0
KTAT 090640Z 21008KT 01/M06 A3012 RMK A01 T00121060  RH  060%=      5-min Rain = 0
KTAT 090645Z 20008KT 01/M06 A3011 RMK A01 T00081059  RH  061%=      5-min Rain = 0
KTAT 090650Z 20008KT 01/M06 A3011 RMK A01 T00061058  RH  063%=      5-min Rain = 0
KTAT 090655Z 20008KT 01/M06 A3011 RMK A01 T00071055  RH  064%=      5-min Rain = 0
KTAT 090700Z 19007KT 01/M05 A3011 RMK A01 T00091054  RH  063%=      5-min Rain = 0
KTAT 090705Z 19007KT 01/M06 A301 RMK A01 T00091055  RH  063%=      5-min Rain = 0
KTAT 090710Z 20008KT 01/M06 A301 RMK A01 T00081055  RH  063%=      5-min Rain = 0
KTAT 090715Z 20008KT 01/M05 A301 RMK A01 T00111052  RH  064%=      5-min Rain = 0
KTAT 090720Z 20007KT 02/M05 A301 RMK A01 T00151051  RH  062%=      5-min Rain = 0
KTAT 090725Z 20008KT 02/M05 A301 RMK A01 T00181050  RH  061%=      5-min Rain = 0
KTAT 090730Z 20008KT 02/M05 A301 RMK A01 T00181051  RH  061%=      5-min Rain = 0
KTAT 090735Z 19009KT 02/M05 A3009 RMK A01 T00161053  RH  061%=      5-min Rain = 0
KTAT 090740Z 19008KT 01/M06 A3009 RMK A01 T00111055  RH  062%=      5-min Rain = 0
KTAT 090745Z 19008KT 01/M06 A3009 RMK A01 T00081055  RH  063%=      5-min Rain = 0
KTAT 090750Z 20008KT 01/M06 A3009 RMK A01 T00081055  RH  064%=      5-min Rain = 0
KTAT 090755Z 20008KT 01/M06 A3009 RMK A01 T00071055  RH  064%=      5-min Rain = 0
KTAT 090800Z 20008KT 00/M06 A3008 RMK A01 T00041056  RH  065%=      5-min Rain = 0
KTAT 090805Z 20008KT 00/M06 A3008 RMK A01 T00011057  RH  066%=      5-min Rain = 0
KTAT 090810Z 20008KT M00/M06 A3008 RMK A01 T10021058  RH  066%=      5-min Rain = 0
KTAT 090815Z 20009KT M01/M06 A3008 RMK A01 T10071061  RH  068%=      5-min Rain = 0
KTAT 090820Z 20010KT M01/M06 A3008 RMK A01 T10091059  RH  069%=      5-min Rain = 0
KTAT 090825Z 21008KT M01/M06 A3008 RMK A01 T10051055  RH  070%=      5-min Rain = 0
KTAT 090830Z 21008KT 00/M05 A3008 RMK A01 T00021052  RH  068%=      5-min Rain = 0
KTAT 090835Z 21008KT 00/M05 A3008 RMK A01 T00041052  RH  067%=      5-min Rain = 0
KTAT 090840Z 22008KT 00/M05 A3008 RMK A01 T00031052  RH  067%=      5-min Rain = 0
KTAT 090845Z 22008KT 00/M05 A3008 RMK A01 T00031052  RH  067%=      5-min Rain = 0
KTAT 090850Z 22008KT 00/M05 A3008 RMK A01 T00021053  RH  068%=      5-min Rain = 0
KTAT 090855Z 21009KT M00/M05 A3008 RMK A01 T10021054  RH  069%=      5-min Rain = 0
KTAT 090900Z 21010KT M00/M05 A3007 RMK A01 T10031053  RH  070%=      5-min Rain = 0
KTAT 090905Z 21009KT M00/M05 A3007 RMK A01 T10021052  RH  070%=      5-min Rain = 0
KTAT 090910Z 22009KT M00/M05 A3008 RMK A01 T10011051  RH  070%=      5-min Rain = 0
KTAT 090915Z 23007KT 00/05 A3008 RMK A01 T00000-51  RH  069%=      5-min Rain = 0
KTAT 090920Z 24006KT M00/M05 A3008 RMK A01 T10011053  RH  069%=      5-min Rain = 0
KTAT 090925Z 24008KT M01/M05 A3008 RMK A01 T10061054  RH  070%=      5-min Rain = 0
KTAT 090930Z 24008KT M01/M05 A3008 RMK A01 T10061052  RH  072%=      5-min Rain = 0
KTAT 090935Z 26007KT M00/M05 A3008 RMK A01 T10041052  RH  071%=      5-min Rain = 0
KTAT 090940Z 26007KT M00/M05 A3008 RMK A01 T10031052  RH  071%=      5-min Rain = 0
KTAT 090945Z 25006KT M01/M05 A3007 RMK A01 T10051054  RH  070%=      5-min Rain = 0
KTAT 090950Z 25006KT M01/M06 A3007 RMK A01 T10071055  RH  071%=      5-min Rain = 0
KTAT 090955Z 24006KT M01/M05 A3007 RMK A01 T10061054  RH  071%=      5-min Rain = 0
KTAT 091000Z 24006KT M01/M06 A3007 RMK A01 T10071055  RH  071%=      5-min Rain = 0
KTAT 091005Z 25007KT M01/M06 A3006 RMK A01 T10101057  RH  071%=      5-min Rain = 0
KTAT 091010Z 24009KT M01/M06 A3006 RMK A01 T10111057  RH  072%=      5-min Rain = 0
KTAT 091015Z 24009KT M01/M06 A3006 RMK A01 T10111056  RH  072%=      5-min Rain = 0
KTAT 091020Z 23009KT M01/M06 A3006 RMK A01 T10091055  RH  072%=      5-min Rain = 0
KTAT 091025Z 23008KT M01/M06 A3005 RMK A01 T10101056  RH  071%=      5-min Rain = 0
KTAT 091030Z 27008KT M01/M06 A3005 RMK A01 T10131058  RH  072%=      5-min Rain = 0
KTAT 091035Z 29008KT M01/M05 A3006 RMK A01 T10101054  RH  073%=      5-min Rain = 0
KTAT 091040Z 28009KT 00/05 A3006 RMK A01 T00-00-49  RH  070%=      5-min Rain = 0
KTAT 091045Z 29008KT 01/M05 A3006 RMK A01 T00101047  RH  066%=      5-min Rain = 0
KTAT 091050Z 28008KT 01/M05 A3006 RMK A01 T00111048  RH  065%=      5-min Rain = 0
KTAT 091055Z 28007KT 01/M05 A3006 RMK A01 T00091050  RH  066%=      5-min Rain = 0
KTAT 091100Z 29008KT 01/M05 A3005 RMK A01 T00051050  RH  067%=      5-min Rain = 0
KTAT 091105Z 29008KT 01/M05 A3005 RMK A01 T00071049  RH  067%=      5-min Rain = 0
KTAT 091110Z 28006KT 01/M05 A3006 RMK A01 T00061050  RH  067%=      5-min Rain = 0
KTAT 091115Z 29009KT 01/M05 A3006 RMK A01 T00051050  RH  067%=      5-min Rain = 0
KTAT 091120Z 29007KT 00/M05 A3006 RMK A01 T00021052  RH  068%=      5-min Rain = 0
KTAT 091125Z 29008KT M00/M05 A3005 RMK A01 T10021054  RH  069%=      5-min Rain = 0
KTAT 091130Z 29008KT M01/M06 A3005 RMK A01 T10061055  RH  070%=      5-min Rain = 0
KTAT 091135Z 29009KT M01/M06 A3005 RMK A01 T10101056  RH  072%=      5-min Rain = 0
KTAT 091140Z 28008KT M01/M05 A3006 RMK A01 T10091054  RH  072%=      5-min Rain = 0
KTAT 091145Z 28008KT M01/M06 A3006 RMK A01 T10091055  RH  072%=      5-min Rain = 0
KTAT 091150Z 29008KT M01/M06 A3006 RMK A01 T10101055  RH  072%=      5-min Rain = 0
KTAT 091155Z 29007KT M01/M06 A3006 RMK A01 T10121056  RH  073%=      5-min Rain = 0
KTAT 091200Z 30008KT M01/M06 A3006 RMK A01 T10141056  RH  074%=      5-min Rain = 0
KTAT 091205Z 29007KT M02/M06 A3006 RMK A01 T10151056  RH  074%=      5-min Rain = 0
KTAT 091210Z 29007KT M02/M06 A3006 RMK A01 T10161058  RH  074%=      5-min Rain = 0
KTAT 091215Z 28006KT M02/M06 A3006 RMK A01 T10191059  RH  075%=      5-min Rain = 0
KTAT 091220Z 28006KT M02/M06 A3006 RMK A01 T10181058  RH  075%=      5-min Rain = 0
KTAT 091225Z 28007KT M02/M06 A3006 RMK A01 T10181058  RH  075%=      5-min Rain = 0
KTAT 091230Z 28007KT M02/M06 A3006 RMK A01 T10181059  RH  075%=      5-min Rain = 0
KTAT 091235Z 27006KT M02/M06 A3006 RMK A01 T10191060  RH  075%=      5-min Rain = 0
KTAT 091240Z 29007KT M02/M06 A3006 RMK A01 T10221061  RH  075%=      5-min Rain = 0
KTAT 091245Z 28008KT M02/M06 A3006 RMK A01 T10231060  RH  076%=      5-min Rain = 0
KTAT 091250Z 27008KT M02/M06 A3005 RMK A01 T10231061  RH  076%=      5-min Rain = 0
KTAT 091255Z 27007KT M03/M06 A3005 RMK A01 T10251062  RH  076%=      5-min Rain = 0
KTAT 091300Z 27006KT M03/M06 A3005 RMK A01 T10261063  RH  077%=      5-min Rain = 0
KTAT 091305Z 27006KT M03/M06 A3005 RMK A01 T10261064  RH  076%=      5-min Rain = 0
KTAT 091310Z 28007KT M03/M06 A3005 RMK A01 T10271064  RH  076%=      5-min Rain = 0
KTAT 091315Z 28007KT M03/M06 A3005 RMK A01 T10271064  RH  077%=      5-min Rain = 0
KTAT 091320Z 27007KT M03/M06 A3006 RMK A01 T10281064  RH  077%=      5-min Rain = 0
KTAT 091325Z 27006KT M03/M06 A3005 RMK A01 T10281064  RH  077%=      5-min Rain = 0
KTAT 091330Z 27006KT M03/M06 A3005 RMK A01 T10281064  RH  077%=      5-min Rain = 0
KTAT 091335Z 26005KT M03/M06 A3005 RMK A01 T10271064  RH  077%=      5-min Rain = 0
KTAT 091340Z 26006KT M03/M06 A3005 RMK A01 T10251064  RH  075%=      5-min Rain = 0
KTAT 091345Z 26006KT M03/M07 A3005 RMK A01 T10261065  RH  076%=      5-min Rain = 0
KTAT 091350Z 26006KT M03/M06 A3005 RMK A01 T10261062  RH  077%=      5-min Rain = 0
KTAT 091355Z 27006KT M02/M06 A3005 RMK A01 T10231059  RH  077%=      5-min Rain = 0
KTAT 091400Z 27007KT M02/M05 A3005 RMK A01 T10161053  RH  077%=      5-min Rain = 0
KTAT 091405Z 27008KT M01/M05 A3006 RMK A01 T10101049  RH  075%=      5-min Rain = 0
KTAT 091410Z 26007KT M00/M05 A3006 RMK A01 T10041046  RH  074%=      5-min Rain = 0
KTAT 091415Z 26007KT 00/M04 A3006 RMK A01 T00021042  RH  073%=      5-min Rain = 0
KTAT 091420Z 26007KT 01/M04 A3006 RMK A01 T00071041  RH  071%=      5-min Rain = 0
KTAT 091425Z 26006KT 01/M04 A3005 RMK A01 T00101040  RH  070%=      5-min Rain = 0
KTAT 091430Z 26007KT 01/M04 A3006 RMK A01 T00121040  RH  069%=      5-min Rain = 0
KTAT 091435Z 27008KT 01/M04 A3006 RMK A01 T00131038  RH  069%=      5-min Rain = 0
KTAT 091440Z 27008KT 02/M04 A3006 RMK A01 T00191036  RH  068%=      5-min Rain = 0
KTAT 091445Z 27007KT 03/M03 A3006 RMK A01 T00261034  RH  065%=      5-min Rain = 0
KTAT 091450Z 27007KT 03/M03 A3006 RMK A01 T00341034  RH  062%=      5-min Rain = 0
KTAT 091455Z 26007KT 04/M03 A3006 RMK A01 T00421032  RH  059%=      5-min Rain = 0
KTAT 091500Z 26007KT 05/M03 A3006 RMK A01 T00491031  RH  056%=      5-min Rain = 0
KTAT 091505Z 27007KT 06/M03 A3006 RMK A01 T00561030  RH  054%=      5-min Rain = 0
KTAT 091510Z 27007KT 06/M03 A3007 RMK A01 T00621029  RH  052%=      5-min Rain = 0
KTAT 091515Z 27007KT 07/M03 A3007 RMK A01 T00691028  RH  051%=      5-min Rain = 0
KTAT 091520Z 27007KT 08/M03 A3007 RMK A01 T00781025  RH  049%=      5-min Rain = 0
KTAT 091525Z 26006KT 09/M02 A3007 RMK A01 T00901022  RH  046%=      5-min Rain = 0
KTAT 091530Z 26007KT 10/M02 A3007 RMK A01 T01031021  RH  042%=      5-min Rain = 0
KTAT 091535Z 27007KT 11/M02 A3007 RMK A01 T01131022  RH  039%=      5-min Rain = 0
KTAT 091540Z 26007KT 12/M02 A3007 RMK A01 T01201024  RH  037%=      5-min Rain = 0
KTAT 091545Z 26008KT 13/M03 A3007 RMK A01 T01271026  RH  035%=      5-min Rain = 0
KTAT 091550Z 26008KT 13/M03 A3007 RMK A01 T01341028  RH  033%=      5-min Rain = 0
KTAT 091555Z 26008KT 14/M03 A3007 RMK A01 T01411029  RH  031%=      5-min Rain = 0
KTAT 091600Z 26007KT 15/M03 A3007 RMK A01 T01471030  RH  030%=      5-min Rain = 0
KTAT 091605Z 26008KT 15/M03 A3007 RMK A01 T01531030  RH  028%=      5-min Rain = 0
KTAT 091610Z 26010KT 16/M03 A3007 RMK A01 T01581031  RH  027%=      5-min Rain = 0
KTAT 091615Z 26009KT 16/M03 A3007 RMK A01 T01621031  RH  027%=      5-min Rain = 0
KTAT 091620Z 25010KT 17/M03 A3007 RMK A01 T01661033  RH  026%=      5-min Rain = 0
KTAT 091625Z 25009KT 17/M03 A3007 RMK A01 T01721033  RH  025%=      5-min Rain = 0
KTAT 091630Z 26008KT 17/M04 A3007 RMK A01 T01721035  RH  024%=      5-min Rain = 0
KTAT 091635Z 25009KT 18/M04 A3007 RMK A01 T01781036  RH  023%=      5-min Rain = 0
KTAT 091640Z 25009KT 18/M04 A3007 RMK A01 T01791037  RH  023%=      5-min Rain = 0
KTAT 091645Z 25010KT 18/M04 A3006 RMK A01 T01821040  RH  022%=      5-min Rain = 0
KTAT 091650Z 25011KT 18/M04 A3007 RMK A01 T01841043  RH  021%=      5-min Rain = 0
KTAT 091655Z 26011KT 18/M05 A3007 RMK A01 T01841047  RH  021%=      5-min Rain = 0
KTAT 091700Z 26011KT 19/M05 A3007 RMK A01 T01861045  RH  021%=      5-min Rain = 0
KTAT 091705Z 26011KT 19/M04 A3006 RMK A01 T01861044  RH  021%=      5-min Rain = 0
KTAT 091710Z 26011KT 19/M04 A3006 RMK A01 T01871043  RH  021%=      5-min Rain = 0
KTAT 091715Z 26010KT 19/M04 A3006 RMK A01 T01911043  RH  020%=      5-min Rain = 0
KTAT 091720Z 26012KT 19/M05 A3005 RMK A01 T01931048  RH  019%=      5-min Rain = 0
KTAT 091725Z 26010KT 20/M05 A3005 RMK A01 T01961048  RH  019%=      5-min Rain = 0
KTAT 091730Z 25012KT 20/M05 A3005 RMK A01 T01991053  RH  018%=      5-min Rain = 0
KTAT 091735Z 26012KT 20/M06 A3005 RMK A01 T02011059  RH  017%=      5-min Rain = 0
KTAT 091740Z 25011KT 20/M06 A3004 RMK A01 T02031064  RH  016%=      5-min Rain = 0
KTAT 091745Z 26011KT 21/M06 A3004 RMK A01 T02071062  RH  016%=      5-min Rain = 0
KTAT 091750Z 25011G16KT 21/M06 A3004 RMK A01 T02091062  RH  016%=      5-min Rain = 0
KTAT 091755Z 24011KT 21/M06 A3004 RMK A01 T02101062  RH  016%=      5-min Rain = 0
KTAT 091800Z 25010KT 21/M06 A3004 RMK A01 T02101063  RH  016%=      5-min Rain = 0
KTAT 091805Z 27012KT 21/M06 A3003 RMK A01 T02121063  RH  015%=      5-min Rain = 0
KTAT 091810Z 26011KT 21/M06 A3003 RMK A01 T02141063  RH  015%=      5-min Rain = 0
KTAT 091815Z 25012G17KT 21/M06 A3002 RMK A01 T02131062  RH  015%=      5-min Rain = 0
KTAT 091820Z 26011KT 21/M06 A3002 RMK A01 T02141063  RH  015%=      5-min Rain = 0
KTAT 091825Z 26012KT 21/M06 A3002 RMK A01 T02141062  RH  015%=      5-min Rain = 0
KTAT 091830Z 26012KT 22/M06 A3002 RMK A01 T02171059  RH  015%=      5-min Rain = 0
KTAT 091835Z 27012KT 22/M06 A3001 RMK A01 T02171059  RH  015%=      5-min Rain = 0
KTAT 091840Z 27012KT 22/M06 A3001 RMK A01 T02161061  RH  015%=      5-min Rain = 0
KTAT 091845Z 26011KT 22/M06 A3001 RMK A01 T02201059  RH  015%=      5-min Rain = 0
KTAT 091850Z 26011KT 21/M06 A30 RMK A01 T02141061  RH  015%=      5-min Rain = 0
KTAT 091855Z 26010KT 22/M06 A30 RMK A01 T02221059  RH  015%=      5-min Rain = 0
KTAT 091900Z 26011KT 22/M06 A30 RMK A01 T02201061  RH  015%=      5-min Rain = 0
KTAT 091905Z 26010KT 22/M06 A2999 RMK A01 T02221062  RH  015%=      5-min Rain = 0
KTAT 091910Z 25008KT 23/M06 A2999 RMK A01 T02261058  RH  015%=      5-min Rain = 0
KTAT 091915Z 26010G15KT 23/M06 A2999 RMK A01 T02271061  RH  014%=      5-min Rain = 0
KTAT 091920Z 25009KT 23/M06 A2998 RMK A01 T02261062  RH  014%=      5-min Rain = 0
KTAT 091925Z 25009KT 23/M06 A2998 RMK A01 T02281061  RH  014%=      5-min Rain = 0
KTAT 091930Z 27009G14KT 23/M06 A2998 RMK A01 T02251064  RH  014%=      5-min Rain = 0
KTAT 091935Z 27009KT 23/M06 A2997 RMK A01 T02291064  RH  014%=      5-min Rain = 0
KTAT 091940Z 25009G14KT 23/M06 A2997 RMK A01 T02321062  RH  014%=      5-min Rain = 0
KTAT 091945Z 25008KT 23/M06 A2997 RMK A01 T02331063  RH  014%=      5-min Rain = 0
KTAT 091950Z 25009KT 24/M06 A2996 RMK A01 T02351062  RH  013%=      5-min Rain = 0
KTAT 091955Z 25007KT 23/M06 A2996 RMK A01 T02321062  RH  014%=      5-min Rain = 0
KTAT 092000Z 25009G14KT 24/M06 A2996 RMK A01 T02361059  RH  014%=      5-min Rain = 0
KTAT 092005Z 25007KT 24/M06 A2996 RMK A01 T02391058  RH  014%=      5-min Rain = 0
KTAT 092010Z 24008KT 24/M06 A2995 RMK A01 T02401058  RH  013%=      5-min Rain = 0
KTAT 092015Z 23008KT 24/M06 A2995 RMK A01 T02421058  RH  013%=      5-min Rain = 0
KTAT 092020Z 23009KT 24/M06 A2995 RMK A01 T02411060  RH  013%=      5-min Rain = 0
KTAT 092025Z 23009KT 24/M06 A2995 RMK A01 T02411058  RH  013%=      5-min Rain = 0
KTAT 092030Z 24009KT 24/M06 A2995 RMK A01 T02411060  RH  013%=      5-min Rain = 0
KTAT 092035Z 24009KT 24/M06 A2995 RMK A01 T02411058  RH  013%=      5-min Rain = 0
KTAT 092040Z 23008G14KT 24/M06 A2995 RMK A01 T02431058  RH  013%=      5-min Rain = 0
KTAT 092045Z 24008KT 24/M06 A2994 RMK A01 T02421059  RH  013%=      5-min Rain = 0
KTAT 092050Z 24008KT 24/M06 A2994 RMK A01 T02421059  RH  013%=      5-min Rain = 0
KTAT 092055Z 24008KT 24/M06 A2994 RMK A01 T02421057  RH  013%=      5-min Rain = 0
KTAT 092100Z 24007KT 24/M06 A2994 RMK A01 T02441056  RH  013%=      5-min Rain = 0
KTAT 092105Z 25006KT 24/M06 A2994 RMK A01 T02431055  RH  013%=      5-min Rain = 0
KTAT 092110Z 25007G12KT 25/M05 A2994 RMK A01 T02491053  RH  013%=      5-min Rain = 0
KTAT 092115Z 24007KT 25/M05 A2993 RMK A01 T02461053  RH  014%=      5-min Rain = 0
KTAT 092120Z 25008G13KT 25/M05 A2993 RMK A01 T02461050  RH  014%=      5-min Rain = 0
KTAT 092125Z 25008KT 24/M05 A2993 RMK A01 T02441047  RH  014%=      5-min Rain = 0
KTAT 092130Z 26008G13KT 24/M05 A2993 RMK A01 T02431046  RH  014%=      5-min Rain = 0
KTAT 092135Z 26007KT 24/M05 A2993 RMK A01 T02421046  RH  015%=      5-min Rain = 0
KTAT 092140Z 25008KT 24/M05 A2993 RMK A01 T02431045  RH  015%=      5-min Rain = 0
KTAT 092145Z 25008G13KT 24/M04 A2993 RMK A01 T02441042  RH  015%=      5-min Rain = 0
KTAT 092150Z 25008KT 24/M04 A2993 RMK A01 T02431041  RH  015%=      5-min Rain = 0
KTAT 092155Z 26008KT 24/M04 A2993 RMK A01 T02421040  RH  015%=      5-min Rain = 0
KTAT 092200Z 24010KT 24/M04 A2993 RMK A01 T02421038  RH  016%=      5-min Rain = 0
KTAT 092205Z 24010KT 24/M04 A2993 RMK A01 T02431036  RH  016%=      5-min Rain = 0
KTAT 092210Z 24009KT 24/M04 A2993 RMK A01 T02401035  RH  016%=      5-min Rain = 0
KTAT 092215Z 23011KT 24/M04 A2993 RMK A01 T02391035  RH  016%=      5-min Rain = 0
KTAT 092220Z 23008KT 24/M03 A2993 RMK A01 T02391033  RH  016%=      5-min Rain = 0
KTAT 092225Z 23010KT 24/M03 A2993 RMK A01 T02371032  RH  017%=      5-min Rain = 0
KTAT 092230Z 23009KT 23/M03 A2993 RMK A01 T02311029  RH  018%=      5-min Rain = 0
KTAT 092235Z 24009KT 23/M03 A2993 RMK A01 T02321025  RH  018%=      5-min Rain = 0
KTAT 092240Z 24011KT 23/M02 A2993 RMK A01 T02301021  RH  019%=      5-min Rain = 0
KTAT 092245Z 24010KT 22/M02 A2993 RMK A01 T02241018  RH  020%=      5-min Rain = 0
KTAT 092250Z 24009KT 22/M02 A2993 RMK A01 T02191017  RH  021%=      5-min Rain = 0
KTAT 092255Z 24009KT 21/M02 A2993 RMK A01 T02141015  RH  022%=      5-min Rain = 0
KTAT 092300Z 24010KT 21/M01 A2993 RMK A01 T02131014  RH  022%=      5-min Rain = 0
KTAT 092305Z 24010KT 21/M01 A2993 RMK A01 T02091014  RH  023%=      5-min Rain = 0
KTAT 092310Z 23009KT 20/M01 A2993 RMK A01 T02011014  RH  024%=      5-min Rain = 0
KTAT 092315Z 23008KT 19/M02 A2993 RMK A01 T01931015  RH  025%=      5-min Rain = 0
KTAT 092320Z 23008KT 19/M02 A2993 RMK A01 T01871015  RH  026%=      5-min Rain = 0
KTAT 092325Z 23007KT 19/M02 A2993 RMK A01 T01861015  RH  026%=      5-min Rain = 0
KTAT 092330Z 23006KT 18/M02 A2993 RMK A01 T01781016  RH  027%=      5-min Rain = 0
KTAT 092335Z 23006KT 17/M02 A2993 RMK A01 T01701018  RH  028%=      5-min Rain = 0
KTAT 092340Z 23006KT 16/M02 A2993 RMK A01 T01641019  RH  029%=      5-min Rain = 0
KTAT 092345Z 23005KT 16/M02 A2993 RMK A01 T01581019  RH  030%=      5-min Rain = 0
KTAT 092350Z 21005KT 16/M02 A2993 RMK A01 T01561019  RH  030%=      5-min Rain = 0
KTAT 092355Z 21005KT 15/M02 A2993 RMK A01 T01511021  RH  031%=      5-min Rain = 0
KTAT 100000Z 21006KT 15/M02 A2993 RMK A01 T01461022  RH  032%=      5-min Rain = 0
KTAT 100005Z 21008KT 14/M02 A2993 RMK A01 T01411022  RH  033%=      5-min Rain = 0
KTAT 100010Z 20009KT 14/M02 A2993 RMK A01 T01361022  RH  034%=      5-min Rain = 0
KTAT 100015Z 20009KT 13/M02 A2993 RMK A01 T01321022  RH  035%=      5-min Rain = 0
KTAT 100020Z 20008KT 13/M02 A2993 RMK A01 T01321021  RH  035%=      5-min Rain = 0
KTAT 100025Z 20008KT 13/M02 A2993 RMK A01 T01281023  RH  035%=      5-min Rain = 0
KTAT 100030Z 20008KT 12/M02 A2993 RMK A01 T01201023  RH  037%=      5-min Rain = 0
KTAT 100035Z 21009KT 12/M02 A2993 RMK A01 T01241017  RH  038%=      5-min Rain = 0
KTAT 100040Z 21009KT 13/M02 A2993 RMK A01 T01271020  RH  037%=      5-min Rain = 0
KTAT 100045Z 22008KT 12/M02 A2993 RMK A01 T01211019  RH  038%=      5-min Rain = 0
KTAT 100050Z 22007KT 12/M02 A2993 RMK A01 T01151020  RH  039%=      5-min Rain = 0
KTAT 100055Z 23006KT 11/M02 A2993 RMK A01 T01101020  RH  040%=      5-min Rain = 0
KTAT 100100Z 22007KT 11/M02 A2992 RMK A01 T01071021  RH  041%=      5-min Rain = 0
KTAT 100105Z 22008KT 10/M02 A2992 RMK A01 T01041021  RH  042%=      5-min Rain = 0
KTAT 100110Z 21009KT 10/M02 A2993 RMK A01 T01041019  RH  043%=      5-min Rain = 0
KTAT 100115Z 21007KT 11/M02 A2992 RMK A01 T01061017  RH  043%=      5-min Rain = 0
KTAT 100120Z 21007KT 11/M02 A2992 RMK A01 T01091017  RH  042%=      5-min Rain = 0
KTAT 100125Z 21007KT 11/M02 A2992 RMK A01 T01081017  RH  042%=      5-min Rain = 0
KTAT 100130Z 21009KT 11/M01 A2992 RMK A01 T01121014  RH  042%=      5-min Rain = 0
KTAT 100135Z 21008KT 12/M01 A2992 RMK A01 T01161014  RH  041%=      5-min Rain = 0
KTAT 100140Z 21008KT 12/M01 A2992 RMK A01 T01171014  RH  041%=      5-min Rain = 0
KTAT 100145Z 20008KT 12/M02 A2992 RMK A01 T01151015  RH  041%=      5-min Rain = 0
KTAT 100150Z 21010KT 11/M01 A2992 RMK A01 T01131012  RH  042%=      5-min Rain = 0
KTAT 100155Z 21009KT 12/M01 A2992 RMK A01 T01221011  RH  040%=      5-min Rain = 0
KTAT 100200Z 21009KT 12/M01 A2992 RMK A01 T01211013  RH  040%=      5-min Rain = 0
KTAT 100205Z 21009KT 11/M01 A2992 RMK A01 T01131014  RH  042%=      5-min Rain = 0
KTAT 100210Z 21010KT 11/M01 A2992 RMK A01 T01071013  RH  044%=      5-min Rain = 0
KTAT 100215Z 21009KT 11/M01 A2992 RMK A01 T01061012  RH  044%=      5-min Rain = 0
KTAT 100220Z 20009KT 10/M01 A2992 RMK A01 T01031013  RH  045%=      5-min Rain = 0
KTAT 100225Z 20009KT 10/M01 A2992 RMK A01 T00991014  RH  046%=      5-min Rain = 0
KTAT 100230Z 20009KT 10/M02 A2992 RMK A01 T00951015  RH  047%=      5-min Rain = 0
KTAT 100235Z 20008KT 09/M02 A2992 RMK A01 T00921015  RH  048%=      5-min Rain = 0
KTAT 100240Z 20009KT 09/M02 A2992 RMK A01 T00901015  RH  048%=      5-min Rain = 0
KTAT 100245Z 20009KT 09/M01 A2992 RMK A01 T00911014  RH  048%=      5-min Rain = 0
KTAT 100250Z 20009KT 09/M01 A2992 RMK A01 T00921014  RH  048%=      5-min Rain = 0
KTAT 100255Z 20009KT 09/M02 A2992 RMK A01 T00911015  RH  048%=      5-min Rain = 0
KTAT 100300Z 20008KT 09/M02 A2992 RMK A01 T00871017  RH  049%=      5-min Rain = 0
KTAT 100305Z 20008KT 08/M02 A2992 RMK A01 T00811018  RH  050%=      5-min Rain = 0
KTAT 100310Z 21008KT 08/M02 A2991 RMK A01 T00771019  RH  051%=      5-min Rain = 0
KTAT 100315Z 21008KT 07/M02 A2991 RMK A01 T00721020  RH  052%=      5-min Rain = 0
KTAT 100320Z 21007KT 07/M02 A2991 RMK A01 T00691020  RH  053%=      5-min Rain = 0
KTAT 100325Z 21008KT 07/M02 A2991 RMK A01 T00651021  RH  055%=      5-min Rain = 0
KTAT 100330Z 21009KT 06/M02 A2991 RMK A01 T00631019  RH  056%=      5-min Rain = 0
KTAT 100335Z 22010KT 07/M02 A2992 RMK A01 T00661017  RH  056%=      5-min Rain = 0
KTAT 100340Z 22009KT 07/M02 A2992 RMK A01 T00721016  RH  054%=      5-min Rain = 0
KTAT 100345Z 22009KT 07/M02 A2992 RMK A01 T00741016  RH  054%=      5-min Rain = 0
KTAT 100350Z 22008KT 07/M02 A2992 RMK A01 T00741016  RH  053%=      5-min Rain = 0
KTAT 100355Z 22008KT 08/M02 A2991 RMK A01 T00751015  RH  053%=      5-min Rain = 0
KTAT 100400Z 22009KT 08/M01 A2991 RMK A01 T00791013  RH  053%=      5-min Rain = 0
KTAT 100405Z 22008KT 08/M01 A2991 RMK A01 T00841012  RH  051%=      5-min Rain = 0
KTAT 100410Z 21009KT 09/M01 A299 RMK A01 T00891011  RH  050%=      5-min Rain = 0
KTAT 100415Z 22011KT 10/M01 A2991 RMK A01 T00981008  RH  048%=      5-min Rain = 0
KTAT 100420Z 22012KT 11/M01 A2992 RMK A01 T01121006  RH  044%=      5-min Rain = 0
KTAT 100425Z 22013KT 12/M01 A2992 RMK A01 T01201008  RH  042%=      5-min Rain = 0
KTAT 100430Z 22013KT 12/M01 A2991 RMK A01 T01211009  RH  041%=      5-min Rain = 0
KTAT 100435Z 22012KT 12/M01 A2991 RMK A01 T01181010  RH  042%=      5-min Rain = 0
KTAT 100440Z 21012KT 12/M01 A2991 RMK A01 T01151010  RH  042%=      5-min Rain = 0
KTAT 100445Z 20012KT 11/M01 A299 RMK A01 T01121011  RH  043%=      5-min Rain = 0
KTAT 100450Z 20011KT 11/M01 A299 RMK A01 T01081011  RH  044%=      5-min Rain = 0
KTAT 100455Z 20010KT 10/M01 A299 RMK A01 T01031012  RH  045%=      5-min Rain = 0
KTAT 100500Z 21010KT 10/M01 A299 RMK A01 T00981012  RH  047%=      5-min Rain = 0
KTAT 100505Z 22010KT 10/M01 A2991 RMK A01 T00951012  RH  048%=      5-min Rain = 0
KTAT 100510Z 23010KT 09/M01 A2991 RMK A01 T00921012  RH  048%=      5-min Rain = 0
KTAT 100515Z 24009KT 09/M01 A2991 RMK A01 T00871013  RH  050%=      5-min Rain = 0
KTAT 100520Z 25010KT 08/M01 A2991 RMK A01 T00831013  RH  051%=      5-min Rain = 0
KTAT 100525Z 25010KT 08/M01 A2991 RMK A01 T00821013  RH  052%=      5-min Rain = 0
KTAT 100530Z 25011KT 08/M01 A2991 RMK A01 T00831012  RH  052%=      5-min Rain = 0
KTAT 100535Z 26010KT 09/M01 A299 RMK A01 T00851012  RH  051%=      5-min Rain = 0
KTAT 100540Z 26010KT 08/M01 A2991 RMK A01 T00831013  RH  051%=      5-min Rain = 0
KTAT 100545Z 26010KT 08/M01 A2991 RMK A01 T00791014  RH  052%=      5-min Rain = 0
KTAT 100550Z 26009KT 08/M01 A299 RMK A01 T00751014  RH  054%=      5-min Rain = 0
KTAT 100555Z 25009KT 07/M02 A299 RMK A01 T00721015  RH  054%=      5-min Rain = 0

Page generated in 0.0275 seconds.